createdAt,value
2018-05-27T13:47:12.427Z,25.10
2018-05-27T13:49:41.474Z,24.90
2018-05-27T13:52:14.675Z,24.80
2018-05-27T13:54:43.304Z,24.80
2018-05-27T13:57:11.971Z,24.70
2018-05-27T13:59:40.726Z,24.70
2018-05-27T14:02:13.525Z,25.00
2018-05-27T14:04:42.029Z,24.90
2018-05-27T14:07:14.583Z,25.10
2018-05-27T14:13:19.193Z,25.40
2018-05-27T14:15:48.484Z,25.70
2018-05-27T14:18:17.262Z,25.70
2018-05-27T14:20:45.870Z,25.60
2018-05-27T14:23:14.347Z,25.60
2018-05-27T14:25:43.371Z,25.40
2018-05-27T14:28:11.938Z,25.40
2018-05-27T14:30:40.927Z,25.20
2018-05-27T14:33:09.981Z,25.20
2018-05-27T14:35:38.323Z,25.20
2018-05-27T14:41:06.209Z,25.10
2018-05-27T14:43:39.332Z,25.10
2018-05-27T14:46:07.776Z,25.10
2018-05-27T14:48:40.168Z,25.20
2018-05-27T14:51:09.205Z,25.10
2018-05-27T14:53:38.961Z,25.10
2018-05-27T14:56:07.913Z,25.00
2018-05-27T14:58:47.011Z,25.00
2018-05-27T15:01:15.706Z,24.90
2018-05-27T15:03:44.924Z,24.80
2018-05-27T15:06:13.304Z,24.70
2018-05-27T15:08:41.575Z,24.60
2018-05-27T15:11:09.892Z,24.50
2018-05-27T15:13:38.746Z,24.40
2018-05-27T15:16:07.049Z,24.30
2018-05-27T15:18:36.521Z,24.10
2018-05-27T15:21:05.047Z,24.10
2018-05-27T15:23:34.105Z,23.90
2018-05-27T15:26:02.433Z,23.90
2018-05-27T15:28:31.975Z,23.70
2018-05-27T15:31:00.454Z,23.60
2018-05-27T15:33:29.005Z,23.50
2018-05-27T15:35:58.277Z,23.20
2018-05-27T15:38:26.473Z,23.20
2018-05-27T15:40:55.959Z,23.10
2018-05-27T15:43:24.159Z,23.00
2018-05-27T15:45:53.155Z,22.80
2018-05-27T15:48:23.480Z,22.70
2018-05-27T15:50:52.807Z,22.60
2018-05-27T15:53:21.486Z,22.60
2018-05-27T15:55:49.883Z,22.50
2018-05-27T15:58:19.020Z,22.40
2018-05-27T16:00:47.307Z,22.40
2018-05-27T16:03:16.475Z,22.30
2018-05-27T16:05:44.907Z,22.30
2018-05-27T16:08:13.554Z,22.20
2018-05-27T16:10:41.951Z,22.10
2018-05-27T16:13:11.508Z,21.80
2018-05-27T16:15:57.681Z,21.80
2018-05-27T16:18:26.459Z,21.70
2018-05-27T16:20:56.256Z,21.50
2018-05-27T16:23:24.836Z,21.40
2018-05-27T16:25:53.144Z,21.30
2018-05-27T16:28:21.515Z,21.10
2018-05-27T16:30:50.956Z,21.00
2018-05-27T16:33:20.143Z,21.00
2018-05-27T16:35:48.315Z,21.00
2018-05-27T16:38:17.206Z,20.90
2018-05-27T16:40:46.708Z,20.80
2018-05-27T16:43:14.979Z,20.80
2018-05-27T16:46:02.493Z,20.80
2018-05-27T16:48:31.264Z,20.80
2018-05-27T16:51:01.528Z,20.70
2018-05-27T16:53:30.874Z,20.60
2018-05-27T16:56:07.423Z,20.60
2018-05-27T16:58:36.049Z,20.70
2018-05-27T17:01:04.533Z,20.70
2018-05-27T17:03:32.899Z,20.70
2018-05-27T17:09:19.120Z,20.70
2018-05-27T17:19:01.863Z,20.60
2018-05-27T17:21:31.391Z,20.50
2018-05-27T17:24:01.992Z,20.50
2018-05-27T17:26:33.607Z,20.40
2018-05-27T17:29:01.965Z,20.40
2018-05-27T17:31:30.519Z,20.50
2018-05-27T17:33:59.577Z,20.60
2018-05-27T17:36:28.260Z,20.60
2018-05-27T17:38:56.714Z,20.70
2018-05-27T17:41:25.251Z,20.80
2018-05-27T17:43:53.805Z,20.90
2018-05-27T17:46:23.051Z,21.00
2018-05-27T17:48:51.363Z,21.10
2018-05-27T17:51:20.303Z,21.20
2018-05-27T17:53:54.389Z,21.20
2018-05-27T17:56:22.638Z,21.20
2018-05-27T17:58:50.857Z,21.30
2018-05-27T18:01:19.044Z,21.30
2018-05-27T18:03:48.089Z,21.40
2018-05-27T18:06:21.335Z,21.50
2018-05-27T18:08:50.044Z,21.50
2018-05-27T18:11:18.507Z,21.50
2018-05-27T18:13:47.534Z,21.60
2018-05-27T18:16:16.237Z,21.60
2018-05-27T18:18:44.511Z,21.70
2018-05-27T18:21:12.850Z,21.70
2018-05-27T18:23:41.986Z,21.70
2018-05-27T18:26:10.360Z,21.70
2018-05-27T18:28:38.909Z,21.70
2018-05-27T18:31:07.921Z,21.60
2018-05-27T18:33:36.264Z,21.60
2018-05-27T18:36:05.294Z,21.60
2018-05-27T18:38:33.815Z,21.60
2018-05-27T18:41:04.067Z,21.60
2018-05-27T18:43:33.003Z,21.60
2018-05-27T18:46:01.192Z,21.60
2018-05-27T18:48:29.495Z,21.60
2018-05-27T18:50:57.922Z,21.60
2018-05-27T18:53:26.911Z,21.60
2018-05-27T18:55:55.170Z,21.60
2018-05-27T18:58:24.167Z,21.50
2018-05-27T19:00:53.180Z,21.60
2018-05-27T19:03:22.457Z,21.60
2018-05-27T19:05:51.555Z,21.60
2018-05-27T19:08:20.631Z,21.50
2018-05-27T19:10:48.963Z,21.50
2018-05-27T19:15:50.022Z,21.40
2018-05-27T19:18:18.688Z,21.30
2018-05-27T19:20:48.193Z,21.20
2018-05-27T19:23:16.419Z,21.10
2018-05-27T19:25:44.712Z,21.20
2018-05-27T19:28:18.551Z,21.00
2018-05-27T19:30:49.622Z,21.00
2018-05-27T19:33:18.111Z,21.00
2018-05-27T19:35:46.389Z,20.90
2018-05-27T19:38:14.753Z,20.80
2018-05-27T19:40:43.083Z,20.80
2018-05-27T19:43:12.049Z,20.70
2018-05-27T19:45:40.353Z,20.60
2018-05-27T19:48:10.222Z,20.60
2018-05-27T19:50:38.438Z,20.50
2018-05-27T19:53:07.539Z,20.50
2018-05-27T19:55:36.652Z,20.50
2018-05-27T19:58:05.098Z,20.50
2018-05-27T20:00:34.209Z,20.40
2018-05-27T20:03:03.229Z,20.40
2018-05-27T20:08:19.752Z,20.30
2018-05-27T20:10:48.084Z,20.20
2018-05-27T20:13:17.394Z,20.20
2018-05-27T20:15:45.748Z,20.10
2018-05-27T20:18:14.103Z,20.10
2018-05-27T20:20:43.412Z,20.10
2018-05-27T20:23:12.106Z,20.10
2018-05-27T20:25:40.729Z,20.10
2018-05-27T20:28:10.781Z,20.00
2018-05-27T20:30:38.992Z,20.00
2018-05-27T20:33:07.261Z,20.00
2018-05-27T20:35:35.580Z,20.00
2018-05-27T20:38:03.876Z,20.00
2018-05-27T20:40:32.328Z,20.00
2018-05-27T20:43:00.619Z,19.90
2018-05-27T20:45:28.876Z,19.90
2018-05-27T20:47:59.407Z,19.80
2018-05-27T20:50:29.151Z,19.80
2018-05-27T20:52:57.420Z,19.80
2018-05-27T20:55:25.658Z,19.80
2018-05-27T20:57:54.604Z,19.80
2018-05-27T21:00:23.223Z,19.70
2018-05-27T21:02:51.523Z,19.70
2018-05-27T21:05:20.507Z,19.70
2018-05-27T21:07:49.014Z,19.70
2018-05-27T21:10:17.241Z,19.70
2018-05-27T21:12:52.117Z,19.70
2018-05-27T21:15:26.249Z,19.70
2018-05-27T21:17:54.755Z,19.70
2018-05-27T21:20:23.053Z,19.70
2018-05-27T21:22:51.377Z,19.70
2018-05-27T21:25:19.724Z,19.70
2018-05-27T21:27:56.787Z,19.70
2018-05-27T21:30:25.353Z,19.70
2018-05-27T21:32:53.625Z,19.60
2018-05-27T21:35:22.065Z,19.50
2018-05-27T21:37:50.448Z,19.40
2018-05-27T21:40:19.611Z,19.40
2018-05-27T21:42:47.909Z,19.30
2018-05-27T21:45:17.176Z,19.20
2018-05-27T21:47:45.809Z,19.20
2018-05-27T21:50:14.816Z,19.10
2018-05-27T21:52:43.184Z,19.10
2018-05-27T21:55:11.583Z,19.00
2018-05-27T21:57:40.144Z,19.00
2018-05-27T22:00:09.639Z,19.00
2018-05-27T22:02:50.022Z,18.90
2018-05-27T22:05:18.465Z,18.90
2018-05-27T22:07:48.008Z,18.90
2018-05-27T22:10:21.367Z,18.90
2018-05-27T22:12:50.516Z,18.90
2018-05-27T22:15:26.629Z,18.90
2018-05-27T22:17:54.919Z,18.80
2018-05-27T22:20:23.312Z,18.70
2018-05-27T22:22:56.488Z,18.70
2018-05-27T22:28:19.992Z,18.70
2018-05-27T22:30:48.448Z,18.60
2018-05-27T22:36:20.604Z,18.60
2018-05-27T22:38:48.815Z,18.50
2018-05-27T22:41:17.510Z,18.50
2018-05-27T22:43:47.940Z,18.50
2018-05-27T22:46:17.206Z,18.40
2018-05-27T22:48:45.755Z,18.40
2018-05-27T22:51:14.197Z,18.40
2018-05-27T22:53:42.600Z,18.30
2018-05-27T22:56:11.848Z,18.30
2018-05-27T22:58:40.362Z,18.20
2018-05-27T23:01:09.490Z,18.20
2018-05-27T23:03:38.636Z,18.20
2018-05-27T23:06:08.461Z,18.10
2018-05-27T23:08:36.739Z,18.10
2018-05-27T23:11:05.768Z,18.00
2018-05-27T23:13:34.104Z,18.00
2018-05-27T23:16:02.607Z,17.90
2018-05-27T23:18:31.597Z,17.90
2018-05-27T23:21:01.164Z,17.90
2018-05-27T23:23:29.713Z,17.90
2018-05-27T23:25:58.085Z,17.90
2018-05-27T23:28:26.385Z,17.90
2018-05-27T23:30:55.255Z,17.80
2018-05-27T23:33:23.659Z,17.80
2018-05-27T23:35:52.242Z,17.80
2018-05-27T23:38:20.584Z,17.70
2018-05-27T23:40:49.873Z,17.70
2018-05-27T23:43:18.416Z,17.70
2018-05-27T23:45:46.779Z,17.70
2018-05-27T23:48:19.106Z,17.70
2018-05-27T23:50:48.570Z,17.70
2018-05-27T23:53:16.977Z,17.70
2018-05-27T23:55:46.152Z,17.70
